CheckWX is a tool to help pilots better visualize weather data.  It is not intended as a substitute for an official pre-flight weather briefing.

05:55:28 UTC

KIND TAF
Indianapolis International Airport
Indianapolis, Indiana, USA
KIND 280521Z 2806/2912 30007KT P6SM SCT250 FM281900 29010KT P6SM VCSH BKN029 FM290000 30009KT P6SM BKN026 FM290400 31008KT P6SM FEW120

Feb-28@
06:00 UTC

Feb-28 @ 06:00 UTC

Feb-28@
19:00 UTC

Feb-28 @ 19:00 UTC

KIND 280521Z 2806/2912 30007KT P6SM SCT250
Wind
  • 300° at 7 KTS
Cloud Levels
  • Scattered at 25,000' AGL

Feb-28@
19:00 UTC

Feb-28 @ 19:00 UTC

Feb-29@
00:00 UTC

Feb-29 @ 00:00 UTC

FM281900 29010KT P6SM VCSH BKN029

From

From Standard forecast or significant change

Wind
  • 290° at 10 KTS
Cloud Levels
  • Broken at 2,900' AGL

Feb-29@
00:00 UTC

Feb-29 @ 00:00 UTC

Feb-29@
04:00 UTC

Feb-29 @ 04:00 UTC

FM290000 30009KT P6SM BKN026

From

From Standard forecast or significant change

Wind
  • 300° at 9 KTS
Cloud Levels
  • Broken at 2,600' AGL

Feb-29@
04:00 UTC

Feb-29 @ 04:00 UTC

Feb-29@
12:00 UTC

Feb-29 @ 12:00 UTC

FM290400 31008KT P6SM FEW120

From

From Standard forecast or significant change

Wind
  • 310° at 8 KTS
Cloud Levels
  • Few at 12,000' AGL